Time;durP1;ratioP1;P1;durP2;ratioP2;P2;SDS_P1;SDS_P2;PMS_P1;PMS_P2;Temp;Humidity;BMP_temperature;BMP_pressure;BME280_temperature;BME280_humidity;BME280_pressure;Samples;Min_cycle;Max_cycle;Signal;HPM_P1;HPM_P2
2023/06/07 00:02:00;;;;;;;7.90;6.28;;;;;;;;;;5135631;27;20053;-54
2023/06/07 00:04:27;;;;;;;7.75;5.78;;;;;;;;;;5135482;27;20054;-54
2023/06/07 00:06:56;;;;;;;6.72;6.03;;;;;;;;;;5135840;27;20054;-54
2023/06/07 00:09:23;;;;;;;;;;;;;;;;;;5135191;27;20061;-56
2023/06/07 00:11:49;;;;;;;7.00;6.30;;;;;;;;;;5135466;27;19923;-55
2023/06/07 00:14:16;;;;;;;7.38;5.88;;;;;;;;;;5135256;27;20051;-55
2023/06/07 00:16:45;;;;;;;8.48;5.93;;;;;;;;;;5133895;27;20062;-53
2023/06/07 00:19:12;;;;;;;7.32;6.63;;;;;;;;;;5135593;27;20403;-55
2023/06/07 00:21:39;;;;;;;8.45;6.35;;;;;;;;;;5135090;27;20047;-55
2023/06/07 00:24:06;;;;;;;7.47;6.60;;;;;;;;;;5135442;27;20055;-54
2023/06/07 00:26:33;;;;;;;7.88;5.97;;;;;;;;;;5135242;27;20058;-55
2023/06/07 00:28:59;;;;;;;8.75;6.05;;;;;;;;;;5134340;27;20051;-55
2023/06/07 00:31:26;;;;;;;8.63;6.88;;;;;;;;;;5134749;27;20047;-53
2023/06/07 00:33:54;;;;;;;7.32;6.30;;;;;;;;;;5133635;27;20055;-55
2023/06/07 00:36:21;;;;;;;11.05;6.43;;;;;;;;;;5134923;27;20488;-53
2023/06/07 00:38:50;;;;;;;10.43;6.60;;;;;;;;;;5134907;27;20055;-56
2023/06/07 00:41:17;;;;;;;9.30;6.40;;;;;;;;;;5134924;27;20047;-55
2023/06/07 00:43:44;;;;;;;9.60;6.55;;;;;;;;;;5134739;27;20062;-54
2023/06/07 00:46:13;;;;;;;7.10;6.00;;;;;;;;;;5135036;27;20051;-54
2023/06/07 00:48:43;;;;;;;7.53;6.40;;;;;;;;;;5120083;27;20055;-56
2023/06/07 00:51:11;;;;;;;7.28;6.57;;;;;;;;;;5114231;28;20470;-55
2023/06/07 00:53:39;;;;;;;8.07;6.60;;;;;;;;;;5114019;28;20050;-56
2023/06/07 00:56:10;;;;;;;10.32;6.18;;;;;;;;;;5113671;28;20070;-55
2023/06/07 00:58:37;;;;;;;9.77;6.63;;;;;;;;;;5114108;28;20078;-55
2023/06/07 01:01:04;;;;;;;11.98;6.93;;;;;;;;;;5113903;28;20051;-56
2023/06/07 01:03:34;;;;;;;8.00;6.20;;;;;;;;;;5132575;27;20411;-55
2023/06/07 01:06:03;;;;;;;9.82;6.53;;;;;;;;;;5134373;27;20047;-55
2023/06/07 01:08:31;;;;;;;8.50;6.72;;;;;;;;;;5133988;27;20062;-56
2023/06/07 01:10:59;;;;;;;10.27;7.00;;;;;;;;;;5134356;27;20051;-56
2023/06/07 01:13:26;;;;;;;8.30;7.43;;;;;;;;;;5134346;27;20396;-56
2023/06/07 01:15:53;;;;;;;7.57;6.20;;;;;;;;;;5134153;27;20492;-56
2023/06/07 01:18:20;;;;;;;9.98;6.40;;;;;;;;;;5133850;27;20051;-56
2023/06/07 01:20:49;;;;;;;7.70;6.43;;;;;;;;;;5134101;27;20047;-56
2023/06/07 01:23:28;;;;;;;10.18;6.85;;;;;;;;;;5134151;27;20051;-54
2023/06/07 01:25:57;;;;;;;8.40;6.38;;;;;;;;;;5133999;27;20062;-56
2023/06/07 01:28:24;;;;;;;7.40;6.22;;;;;;;;;;5133996;27;20055;-55
2023/06/07 01:30:54;;;;;;;9.02;6.57;;;;;;;;;;5117009;27;20066;-55
2023/06/07 01:33:21;;;;;;;9.30;6.07;;;;;;;;;;5135136;27;20047;-56
2023/06/07 01:35:48;;;;;;;8.90;6.45;;;;;;;;;;5134105;27;20050;-55
2023/06/07 01:38:15;;;;;;;11.43;6.80;;;;;;;;;;5133804;27;20051;-56
2023/06/07 01:40:43;;;;;;;8.35;6.25;;;;;;;;;;5134133;27;20484;-56
2023/06/07 01:43:14;;;;;;;8.23;6.72;;;;;;;;;;5133684;27;20074;-55
2023/06/07 01:45:41;;;;;;;8.63;6.72;;;;;;;;;;5134258;27;20051;-56
2023/06/07 01:48:09;;;;;;;7.55;6.60;;;;;;;;;;5133398;27;20051;-56
2023/06/07 01:50:39;;;;;;;9.43;6.50;;;;;;;;;;5134145;27;20058;-54
2023/06/07 01:53:06;;;;;;;9.20;6.43;;;;;;;;;;5133643;27;20051;-57
2023/06/07 01:55:33;;;;;;;7.43;6.18;;;;;;;;;;5133210;27;20051;-55
2023/06/07 01:58:05;;;;;;;7.50;5.97;;;;;;;;;;5133583;27;20058;-56
2023/06/07 02:00:36;;;;;;;8.70;5.80;;;;;;;;;;5133937;27;20055;-56
2023/06/07 02:03:08;;;;;;;9.80;6.47;;;;;;;;;;5131944;27;20059;-55
2023/06/07 02:05:36;;;;;;;10.13;6.65;;;;;;;;;;5131943;27;20472;-56
2023/06/07 02:08:07;;;;;;;8.88;6.50;;;;;;;;;;5133375;28;20062;-55
2023/06/07 02:10:34;;;;;;;9.95;5.80;;;;;;;;;;5133525;28;20051;-56
2023/06/07 02:13:02;;;;;;;7.68;6.68;;;;;;;;;;5133638;28;20391;-55
2023/06/07 02:15:28;;;;;;;9.98;6.28;;;;;;;;;;5133846;28;20051;-54
2023/06/07 02:17:58;;;;;;;6.75;6.05;;;;;;;;;;5135216;27;20050;-56
2023/06/07 02:20:24;;;;;;;;;;;;;;;;;;5130905;27;20391;-56
2023/06/07 02:22:51;;;;;;;10.27;5.90;;;;;;;;;;5113082;28;19919;-57
2023/06/07 02:25:18;;;;;;;9.73;5.95;;;;;;;;;;5113049;28;20472;-56
2023/06/07 02:27:45;;;;;;;7.40;5.95;;;;;;;;;;5112757;28;20056;-56
2023/06/07 02:30:12;;;;;;;8.40;6.25;;;;;;;;;;5113017;28;20058;-54
2023/06/07 02:32:39;;;;;;;9.00;6.50;;;;;;;;;;5114479;27;20058;-56
2023/06/07 02:35:08;;;;;;;9.07;5.97;;;;;;;;;;5113033;28;20055;-53
2023/06/07 02:37:35;;;;;;;8.98;6.50;;;;;;;;;;5112737;28;20055;-56
2023/06/07 02:40:06;;;;;;;9.55;6.40;;;;;;;;;;5112536;28;20481;-56
2023/06/07 02:42:33;;;;;;;9.00;7.00;;;;;;;;;;5112272;28;20063;-55
2023/06/07 02:45:01;;;;;;;9.18;6.55;;;;;;;;;;5112590;28;20059;-55
2023/06/07 02:47:28;;;;;;;10.70;7.03;;;;;;;;;;5116532;27;20058;-56
2023/06/07 02:49:55;;;;;;;9.07;6.35;;;;;;;;;;5134728;27;20496;-56
2023/06/07 02:52:25;;;;;;;8.38;6.95;;;;;;;;;;5133252;28;20050;-61
2023/06/07 02:54:52;;;;;;;9.25;7.10;;;;;;;;;;5133226;28;20047;-60
2023/06/07 02:57:18;;;;;;;11.57;7.28;;;;;;;;;;5132747;28;20051;-60
2023/06/07 02:59:46;;;;;;;11.00;6.57;;;;;;;;;;5133637;28;20062;-60
2023/06/07 03:02:13;;;;;;;11.93;7.30;;;;;;;;;;5135136;27;20055;-60
2023/06/07 03:04:43;;;;;;;9.40;6.95;;;;;;;;;;5131876;27;20062;-60
2023/06/07 03:07:10;;;;;;;8.88;6.90;;;;;;;;;;5135859;27;20063;-61
2023/06/07 03:09:43;;;;;;;9.85;7.60;;;;;;;;;;5136851;27;20051;-60
2023/06/07 03:12:10;;;;;;;8.95;6.25;;;;;;;;;;5136224;27;20065;-60
2023/06/07 03:14:38;;;;;;;9.52;6.68;;;;;;;;;;5136743;27;20066;-60
2023/06/07 03:17:08;;;;;;;11.27;6.70;;;;;;;;;;5139302;27;20042;-60
2023/06/07 03:19:35;;;;;;;12.32;6.80;;;;;;;;;;5134848;27;20392;-60
2023/06/07 03:22:02;;;;;;;10.23;6.57;;;;;;;;;;5131753;27;20539;-60
2023/06/07 03:24:29;;;;;;;10.43;6.40;;;;;;;;;;5115958;28;20051;-60
2023/06/07 03:26:59;;;;;;;9.88;7.03;;;;;;;;;;5116124;28;20058;-60
2023/06/07 03:29:26;;;;;;;10.25;6.82;;;;;;;;;;5116072;28;20051;-61
2023/06/07 03:31:53;;;;;;;9.80;6.82;;;;;;;;;;5116981;27;20054;-60
2023/06/07 03:34:20;;;;;;;12.45;6.80;;;;;;;;;;5136228;27;20050;-61
2023/06/07 03:36:47;;;;;;;11.23;6.55;;;;;;;;;;5136438;27;20404;-61
2023/06/07 03:39:14;;;;;;;12.20;7.40;;;;;;;;;;5135928;27;20403;-60
2023/06/07 03:41:41;;;;;;;11.57;6.88;;;;;;;;;;5134761;27;20054;-60
2023/06/07 03:44:13;;;;;;;12.45;6.53;;;;;;;;;;5136164;27;20434;-61
2023/06/07 03:46:40;;;;;;;8.75;6.18;;;;;;;;;;5135978;27;20519;-60
2023/06/07 03:49:06;;;;;;;7.95;6.15;;;;;;;;;;5136681;27;20395;-60
2023/06/07 03:51:33;;;;;;;9.98;6.70;;;;;;;;;;5136092;27;20058;-61
2023/06/07 03:54:00;;;;;;;8.93;6.20;;;;;;;;;;5135687;27;20051;-60
2023/06/07 03:56:27;;;;;;;10.85;7.07;;;;;;;;;;5134825;27;20078;-60
2023/06/07 03:58:54;;;;;;;10.73;6.78;;;;;;;;;;5135729;27;20054;-60
2023/06/07 04:01:25;;;;;;;13.50;6.82;;;;;;;;;;5136002;27;20051;-60
2023/06/07 04:03:52;;;;;;;10.48;6.50;;;;;;;;;;5129841;27;20058;-60
2023/06/07 04:06:20;;;;;;;10.18;6.80;;;;;;;;;;5134895;27;20399;-60
2023/06/07 04:08:47;;;;;;;11.60;7.03;;;;;;;;;;5134642;27;20055;-60
2023/06/07 04:11:14;;;;;;;12.73;6.97;;;;;;;;;;5135434;27;20074;-61
2023/06/07 04:13:42;;;;;;;9.50;7.25;;;;;;;;;;5135341;27;20050;-61
2023/06/07 04:16:09;;;;;;;9.48;7.05;;;;;;;;;;5134809;27;20062;-61
2023/06/07 04:18:37;;;;;;;10.23;6.95;;;;;;;;;;5134660;27;20047;-60
2023/06/07 04:21:05;;;;;;;9.48;6.90;;;;;;;;;;5135562;27;20047;-60
2023/06/07 04:23:32;;;;;;;11.30;6.88;;;;;;;;;;5135065;27;20047;-59
2023/06/07 04:26:00;;;;;;;11.55;6.53;;;;;;;;;;5135350;27;20055;-60
2023/06/07 04:28:27;;;;;;;11.05;7.13;;;;;;;;;;5134479;27;20047;-60
2023/06/07 04:30:57;;;;;;;9.82;7.22;;;;;;;;;;5134447;27;20043;-61
2023/06/07 04:33:23;;;;;;;;;;;;;;;;;;5114932;28;20063;-61
2023/06/07 04:35:51;;;;;;;13.25;7.32;;;;;;;;;;5114330;28;19920;-60
2023/06/07 04:38:21;;;;;;;9.68;6.60;;;;;;;;;;5114319;28;20055;-61
2023/06/07 04:40:48;;;;;;;10.63;6.72;;;;;;;;;;5114392;28;20059;-61
2023/06/07 04:43:17;;;;;;;12.13;7.75;;;;;;;;;;5114534;28;20057;-60
2023/06/07 04:45:46;;;;;;;9.68;6.85;;;;;;;;;;5117700;27;20059;-60
2023/06/07 04:48:13;;;;;;;8.77;6.95;;;;;;;;;;5114418;28;20112;-60
2023/06/07 04:50:41;;;;;;;9.93;6.68;;;;;;;;;;5114480;28;20468;-60
2023/06/07 04:53:10;;;;;;;9.70;6.82;;;;;;;;;;5128618;27;20050;-60
2023/06/07 04:55:37;;;;;;;12.07;7.50;;;;;;;;;;5132641;27;20055;-61
2023/06/07 04:58:05;;;;;;;12.93;8.43;;;;;;;;;;5128231;27;20411;-61
2023/06/07 05:00:33;;;;;;;17.27;12.13;;;;;;;;;;5131837;27;20047;-60
2023/06/07 05:03:06;;;;;;;16.83;10.95;;;;;;;;;;5134319;27;20058;-60
2023/06/07 05:05:32;;;;;;;14.77;10.70;;;;;;;;;;5133250;27;20086;-60
2023/06/07 05:07:59;;;;;;;14.82;8.98;;;;;;;;;;5131711;27;20047;-60
2023/06/07 05:10:27;;;;;;;11.55;7.75;;;;;;;;;;5131121;27;20047;-60
2023/06/07 05:12:55;;;;;;;10.52;7.05;;;;;;;;;;5131881;27;20074;-60
2023/06/07 05:15:23;;;;;;;10.40;6.88;;;;;;;;;;5130295;27;20047;-60
2023/06/07 05:17:50;;;;;;;11.15;7.05;;;;;;;;;;5132842;27;20054;-60
2023/06/07 05:20:16;;;;;;;9.20;7.25;;;;;;;;;;5132994;27;20051;-60
2023/06/07 05:22:44;;;;;;;11.85;7.60;;;;;;;;;;5128207;27;20058;-60
2023/06/07 05:25:11;;;;;;;11.65;7.22;;;;;;;;;;5130738;27;20054;-60
2023/06/07 05:27:40;;;;;;;11.57;7.05;;;;;;;;;;5131102;27;20061;-61
2023/06/07 05:30:07;;;;;;;10.20;6.47;;;;;;;;;;5123313;27;20050;-60
2023/06/07 05:32:35;;;;;;;9.05;6.70;;;;;;;;;;5126320;27;20058;-61
2023/06/07 05:35:02;;;;;;;10.68;6.70;;;;;;;;;;5130509;27;20051;-60
2023/06/07 05:37:29;;;;;;;9.98;7.50;;;;;;;;;;5130261;27;20389;-60
2023/06/07 05:39:56;;;;;;;10.40;7.38;;;;;;;;;;5127483;27;20500;-60
2023/06/07 05:42:23;;;;;;;10.38;7.07;;;;;;;;;;5132375;27;20055;-61
2023/06/07 05:44:51;;;;;;;11.77;6.80;;;;;;;;;;5129305;27;20468;-60
2023/06/07 05:47:20;;;;;;;8.27;6.78;;;;;;;;;;5133527;27;20488;-60
2023/06/07 05:49:47;;;;;;;10.03;7.07;;;;;;;;;;5133542;27;20508;-61
2023/06/07 05:52:14;;;;;;;11.00;7.85;;;;;;;;;;5113092;28;20492;-60
2023/06/07 05:54:48;;;;;;;13.30;7.57;;;;;;;;;;5119303;27;20416;-60
2023/06/07 05:57:15;;;;;;;10.32;7.45;;;;;;;;;;5133135;27;20055;-60
2023/06/07 05:59:42;;;;;;;10.43;8.10;;;;;;;;;;5131534;27;20070;-60
2023/06/07 06:02:10;;;;;;;10.13;7.50;;;;;;;;;;5133197;27;20046;-60
2023/06/07 06:04:37;;;;;;;13.27;7.80;;;;;;;;;;5133368;27;20058;-60
2023/06/07 06:07:04;;;;;;;11.48;8.10;;;;;;;;;;5132956;27;20411;-61
2023/06/07 06:09:30;;;;;;;10.60;7.70;;;;;;;;;;5131470;27;20480;-61
2023/06/07 06:11:59;;;;;;;10.73;7.78;;;;;;;;;;5130441;27;20496;-60
2023/06/07 06:14:26;;;;;;;14.60;7.77;;;;;;;;;;5132338;27;20052;-60
2023/06/07 06:16:53;;;;;;;9.30;7.07;;;;;;;;;;5132267;27;20472;-61
2023/06/07 06:19:21;;;;;;;10.02;7.55;;;;;;;;;;5130916;27;20051;-60
2023/06/07 06:21:48;;;;;;;11.85;7.80;;;;;;;;;;5133404;28;20050;-60
2023/06/07 06:24:14;;;;;;;14.82;7.53;;;;;;;;;;5132954;28;20372;-60
2023/06/07 06:26:41;;;;;;;11.75;7.82;;;;;;;;;;5132744;28;20055;-60
2023/06/07 06:29:08;;;;;;;11.43;7.65;;;;;;;;;;5134587;27;20055;-61
2023/06/07 06:31:35;;;;;;;9.43;7.22;;;;;;;;;;5130741;27;20066;-55
2023/06/07 06:34:02;;;;;;;11.73;8.10;;;;;;;;;;5130896;27;20407;-54
2023/06/07 06:36:30;;;;;;;12.60;8.27;;;;;;;;;;5125363;27;20047;-54
2023/06/07 06:38:57;;;;;;;11.00;7.88;;;;;;;;;;5128782;27;20082;-55
2023/06/07 06:41:24;;;;;;;11.38;7.43;;;;;;;;;;5135629;27;20055;-55
2023/06/07 06:43:51;;;;;;;9.23;8.30;;;;;;;;;;5135588;27;20888;-54
2023/06/07 06:46:18;;;;;;;16.13;8.65;;;;;;;;;;5136871;27;20051;-55
2023/06/07 06:48:45;;;;;;;10.55;8.25;;;;;;;;;;5136900;27;20059;-55
2023/06/07 06:51:11;;;;;;;11.10;8.00;;;;;;;;;;5134324;27;20063;-55
2023/06/07 06:53:40;;;;;;;11.68;8.52;;;;;;;;;;5136914;27;20058;-54
2023/06/07 06:56:07;;;;;;;11.80;8.52;;;;;;;;;;5135293;27;20051;-53
2023/06/07 06:58:34;;;;;;;13.27;8.50;;;;;;;;;;5137052;27;20051;-55
2023/06/07 07:01:02;;;;;;;15.10;8.93;;;;;;;;;;5136676;27;20051;-54
2023/06/07 07:03:29;;;;;;;13.23;8.88;;;;;;;;;;5136628;27;20067;-60
2023/06/07 07:05:56;;;;;;;13.40;9.27;;;;;;;;;;5136318;27;20058;-55
2023/06/07 07:08:23;;;;;;;14.07;10.38;;;;;;;;;;5136480;27;20051;-55
2023/06/07 07:10:51;;;;;;;15.45;10.23;;;;;;;;;;5136534;27;20054;-54
2023/06/07 07:13:18;;;;;;;14.77;9.80;;;;;;;;;;5136078;27;20054;-56
2023/06/07 07:15:45;;;;;;;14.35;9.98;;;;;;;;;;5136748;27;20047;-55
2023/06/07 07:18:11;;;;;;;14.68;8.48;;;;;;;;;;5136326;27;20055;-54
2023/06/07 07:20:38;;;;;;;13.07;9.60;;;;;;;;;;5136636;27;20051;-56
2023/06/07 07:23:05;;;;;;;14.43;9.07;;;;;;;;;;5135936;27;20051;-56
2023/06/07 07:25:32;;;;;;;12.73;8.93;;;;;;;;;;5136431;27;20051;-55
2023/06/07 07:28:00;;;;;;;11.48;9.77;;;;;;;;;;5137274;27;20074;-56
2023/06/07 07:30:27;;;;;;;11.63;9.40;;;;;;;;;;5136466;27;20418;-61
2023/06/07 07:32:55;;;;;;;12.40;9.43;;;;;;;;;;5135995;27;20051;-59
2023/06/07 07:35:22;;;;;;;13.10;9.98;;;;;;;;;;5136322;27;20047;-59
2023/06/07 07:37:49;;;;;;;11.80;9.32;;;;;;;;;;5135878;27;20055;-60
2023/06/07 07:40:16;;;;;;;16.70;10.65;;;;;;;;;;5135858;27;20051;-60
2023/06/07 07:42:43;;;;;;;13.48;9.98;;;;;;;;;;5137858;27;20043;-60
2023/06/07 07:45:11;;;;;;;10.75;8.52;;;;;;;;;;5132446;27;20051;-60
2023/06/07 07:47:38;;;;;;;11.97;9.50;;;;;;;;;;5136100;27;20403;-60
2023/06/07 07:50:07;;;;;;;15.73;9.30;;;;;;;;;;5136148;27;20488;-60
2023/06/07 07:52:34;;;;;;;14.27;9.43;;;;;;;;;;5134737;27;20051;-59
2023/06/07 07:55:02;;;;;;;13.25;9.82;;;;;;;;;;5135328;27;20505;-60
2023/06/07 07:57:29;;;;;;;12.45;9.43;;;;;;;;;;5114793;27;20062;-60
2023/06/07 07:59:56;;;;;;;13.93;10.90;;;;;;;;;;5114892;28;20133;-59
2023/06/07 08:02:24;;;;;;;14.65;10.18;;;;;;;;;;5115281;28;20059;-60
2023/06/07 08:04:53;;;;;;;12.68;9.50;;;;;;;;;;5114903;28;20048;-59
2023/06/07 08:07:20;;;;;;;12.23;9.60;;;;;;;;;;5115172;27;20051;-60
2023/06/07 08:09:47;;;;;;;12.75;9.48;;;;;;;;;;5115275;28;20051;-60
2023/06/07 08:12:14;;;;;;;12.57;11.18;;;;;;;;;;5114096;27;20055;-60
2023/06/07 08:14:40;;;;;;;14.93;9.75;;;;;;;;;;5113561;28;20366;-58
2023/06/07 08:17:07;;;;;;;13.48;10.73;;;;;;;;;;5115142;28;20052;-60
2023/06/07 08:19:35;;;;;;;14.82;10.07;;;;;;;;;;5114893;28;20062;-60
2023/06/07 08:22:02;;;;;;;15.45;10.60;;;;;;;;;;5115232;28;20433;-59
2023/06/07 08:24:29;;;;;;;14.18;9.80;;;;;;;;;;5114993;27;20059;-59
2023/06/07 08:26:56;;;;;;;14.90;9.85;;;;;;;;;;5114094;28;20062;-60
2023/06/07 08:29:23;;;;;;;11.93;9.63;;;;;;;;;;5112787;27;20412;-60
2023/06/07 08:31:50;;;;;;;12.48;10.18;;;;;;;;;;5108020;28;20055;-55
2023/06/07 08:34:16;;;;;;;13.10;10.80;;;;;;;;;;5094400;28;20052;-56
2023/06/07 08:36:45;;;;;;;11.80;10.18;;;;;;;;;;5093909;28;20052;-55
2023/06/07 08:39:12;;;;;;;10.82;9.60;;;;;;;;;;5094063;28;20395;-56
2023/06/07 08:41:39;;;;;;;13.85;9.77;;;;;;;;;;5094003;28;20048;-60
2023/06/07 08:44:06;;;;;;;12.63;10.60;;;;;;;;;;5111213;27;20074;-60
2023/06/07 08:46:33;;;;;;;13.18;10.30;;;;;;;;;;5116806;28;20054;-60
2023/06/07 08:49:00;;;;;;;13.43;10.18;;;;;;;;;;5114103;28;20047;-60
2023/06/07 08:51:28;;;;;;;12.10;10.30;;;;;;;;;;5114461;28;20044;-59
2023/06/07 08:53:57;;;;;;;13.45;10.90;;;;;;;;;;5114454;28;20047;-59
2023/06/07 08:56:25;;;;;;;13.95;12.35;;;;;;;;;;5124593;27;20054;-59
2023/06/07 08:58:52;;;;;;;15.63;11.07;;;;;;;;;;5134846;27;20403;-59
2023/06/07 09:01:20;;;;;;;13.70;12.38;;;;;;;;;;5134718;27;20054;-60
2023/06/07 09:03:50;;;;;;;14.88;13.25;;;;;;;;;;5134343;27;20051;-59
2023/06/07 09:06:17;;;;;;;17.20;13.77;;;;;;;;;;5133937;27;20043;-60
2023/06/07 09:08:43;;;;;;;15.57;13.98;;;;;;;;;;5133672;27;20058;-59
2023/06/07 09:11:12;;;;;;;18.75;13.38;;;;;;;;;;5133998;27;20071;-59
2023/06/07 09:13:47;;;;;;;17.33;14.57;;;;;;;;;;5132815;27;20047;-60
2023/06/07 09:16:15;;;;;;;15.77;14.07;;;;;;;;;;5134122;27;20057;-60
2023/06/07 09:18:43;;;;;;;14.75;12.90;;;;;;;;;;5135558;27;20050;-56
2023/06/07 09:21:27;;;;;;;16.35;13.52;;;;;;;;;;5134272;27;20051;-57
2023/06/07 09:23:54;;;;;;;16.77;14.55;;;;;;;;;;5134046;27;20047;-56
2023/06/07 09:26:23;;;;;;;16.38;13.85;;;;;;;;;;5134089;27;20047;-56
2023/06/07 09:28:50;;;;;;;14.70;12.37;;;;;;;;;;5132549;27;20051;-55
2023/06/07 09:31:28;;;;;;;15.02;13.38;;;;;;;;;;5133784;27;20050;-56
2023/06/07 09:33:55;;;;;;;14.68;13.13;;;;;;;;;;5133744;27;20059;-56
2023/06/07 09:36:22;;;;;;;16.45;14.10;;;;;;;;;;5133591;27;20054;-56
2023/06/07 09:38:49;;;;;;;13.73;12.32;;;;;;;;;;5133895;27;20463;-56
2023/06/07 09:41:32;;;;;;;15.82;13.93;;;;;;;;;;5134381;27;20054;-57
2023/06/07 09:44:02;;;;;;;15.73;13.30;;;;;;;;;;5122271;27;20492;-60
2023/06/07 09:46:34;;;;;;;14.25;12.63;;;;;;;;;;5112843;28;20052;-61
2023/06/07 09:49:01;;;;;;;14.25;12.75;;;;;;;;;;5113043;28;20507;-61
2023/06/07 09:51:38;;;;;;;14.20;12.65;;;;;;;;;;5117926;27;20054;-60
2023/06/07 09:54:08;;;;;;;13.93;12.57;;;;;;;;;;5133406;27;20055;-60
2023/06/07 09:56:34;;;;;;;;;;;;;;;;;;5134604;27;20058;-60
2023/06/07 09:59:09;;;;;;;14.55;13.15;;;;;;;;;;5130186;27;19919;-60
2023/06/07 10:01:37;;;;;;;14.07;12.45;;;;;;;;;;5133368;27;20505;-59
2023/06/07 10:04:05;;;;;;;12.52;11.23;;;;;;;;;;5131381;27;20499;-59
2023/06/07 10:06:34;;;;;;;12.98;11.68;;;;;;;;;;5133094;27;20058;-59
2023/06/07 10:09:03;;;;;;;12.80;11.40;;;;;;;;;;5133063;27;20047;-59
2023/06/07 10:11:30;;;;;;;14.50;12.18;;;;;;;;;;5132609;27;20051;-59
2023/06/07 10:13:57;;;;;;;12.63;11.25;;;;;;;;;;5132554;27;20136;-59
2023/06/07 10:16:28;;;;;;;10.57;9.45;;;;;;;;;;5132804;27;20047;-55
2023/06/07 10:18:57;;;;;;;11.20;9.60;;;;;;;;;;5133350;28;20055;-55
2023/06/07 10:21:23;;;;;;;;;;;;;;;;;;5133537;28;20399;-55
2023/06/07 10:23:51;;;;;;;11.18;10.05;;;;;;;;;;5133335;28;19919;-55
2023/06/07 10:26:21;;;;;;;11.52;10.43;;;;;;;;;;5132959;28;20504;-55
2023/06/07 10:28:53;;;;;;;10.68;9.57;;;;;;;;;;5132510;27;20051;-55
2023/06/07 10:31:21;;;;;;;11.73;10.63;;;;;;;;;;5133760;28;20047;-59
2023/06/07 10:33:51;;;;;;;11.18;10.18;;;;;;;;;;5133173;28;20055;-59
2023/06/07 10:36:19;;;;;;;11.57;10.52;;;;;;;;;;5133535;28;20417;-59
2023/06/07 10:38:46;;;;;;;11.65;10.55;;;;;;;;;;5132986;28;20062;-60
2023/06/07 10:41:13;;;;;;;12.82;11.52;;;;;;;;;;5133206;28;20058;-60
2023/06/07 10:43:41;;;;;;;13.48;12.18;;;;;;;;;;5133090;27;20496;-54
2023/06/07 10:46:20;;;;;;;13.70;12.40;;;;;;;;;;5133588;28;20047;-59
2023/06/07 10:48:47;;;;;;;13.88;12.55;;;;;;;;;;5130874;27;20066;-60
2023/06/07 10:51:16;;;;;;;14.50;13.07;;;;;;;;;;5132034;27;20046;-60
2023/06/07 10:53:49;;;;;;;15.73;14.13;;;;;;;;;;5132718;28;20047;-59
2023/06/07 10:56:26;;;;;;;15.20;13.70;;;;;;;;;;5132373;28;20514;-59
2023/06/07 10:58:53;;;;;;;15.80;14.25;;;;;;;;;;5131916;27;20427;-60
2023/06/07 11:01:24;;;;;;;15.73;14.23;;;;;;;;;;5133090;28;20051;-60
2023/06/07 11:03:51;;;;;;;14.90;13.43;;;;;;;;;;5132848;28;20051;-59
2023/06/07 11:06:19;;;;;;;16.83;15.05;;;;;;;;;;5133017;28;20050;-60
2023/06/07 11:08:46;;;;;;;18.70;14.43;;;;;;;;;;5132728;28;20410;-60
2023/06/07 11:11:27;;;;;;;16.02;13.65;;;;;;;;;;5132167;27;20055;-59
2023/06/07 11:14:10;;;;;;;15.75;13.02;;;;;;;;;;5114956;27;20047;-60
2023/06/07 11:16:37;;;;;;;15.38;13.85;;;;;;;;;;5132918;28;20345;-59
2023/06/07 11:19:08;;;;;;;16.42;14.38;;;;;;;;;;5132825;28;20054;-59
2023/06/07 11:21:50;;;;;;;16.08;14.48;;;;;;;;;;5132822;28;20389;-59
2023/06/07 11:24:19;;;;;;;16.05;14.30;;;;;;;;;;5131991;28;20395;-59
2023/06/07 11:26:47;;;;;;;18.30;14.82;;;;;;;;;;5132848;27;20060;-59
2023/06/07 11:29:15;;;;;;;15.80;14.23;;;;;;;;;;5134489;27;20506;-59
2023/06/07 11:31:42;;;;;;;17.15;15.48;;;;;;;;;;5136365;27;20051;-59
2023/06/07 11:34:12;;;;;;;17.58;15.80;;;;;;;;;;5136106;27;20051;-59
2023/06/07 11:36:38;;;;;;;16.88;15.27;;;;;;;;;;5136151;27;20498;-59
2023/06/07 11:39:08;;;;;;;17.42;15.63;;;;;;;;;;5136006;27;20054;-59
2023/06/07 11:41:36;;;;;;;18.90;17.10;;;;;;;;;;5136149;27;20051;-59
2023/06/07 11:44:03;;;;;;;16.67;15.05;;;;;;;;;;5134352;27;20604;-59
2023/06/07 11:46:32;;;;;;;19.15;17.25;;;;;;;;;;5135981;27;20407;-60
2023/06/07 11:49:02;;;;;;;18.67;16.88;;;;;;;;;;5135877;27;20051;-59
2023/06/07 11:51:29;;;;;;;16.55;14.98;;;;;;;;;;5135872;27;20047;-60
2023/06/07 11:53:57;;;;;;;17.08;15.05;;;;;;;;;;5135995;27;20051;-60
2023/06/07 11:56:25;;;;;;;17.30;15.63;;;;;;;;;;5135386;27;20404;-60
2023/06/07 11:58:53;;;;;;;18.48;14.93;;;;;;;;;;5134643;27;20861;-60
2023/06/07 12:01:20;;;;;;;18.55;16.55;;;;;;;;;;5135917;27;20408;-60
2023/06/07 12:03:48;;;;;;;18.90;16.63;;;;;;;;;;5133224;27;20399;-59
2023/06/07 12:06:15;;;;;;;18.15;16.38;;;;;;;;;;5135570;27;20063;-59
2023/06/07 12:08:42;;;;;;;17.38;15.70;;;;;;;;;;5135411;27;20055;-60
2023/06/07 12:11:08;;;;;;;17.52;15.68;;;;;;;;;;5135666;27;20376;-59
2023/06/07 12:13:36;;;;;;;17.52;15.80;;;;;;;;;;5133088;27;20047;-60
2023/06/07 12:16:05;;;;;;;18.55;16.60;;;;;;;;;;5134820;27;20058;-59
2023/06/07 12:18:34;;;;;;;18.48;16.67;;;;;;;;;;5135321;27;20400;-58
2023/06/07 12:21:02;;;;;;;18.08;16.27;;;;;;;;;;5116106;27;20515;-59
2023/06/07 12:23:29;;;;;;;17.77;16.05;;;;;;;;;;5134071;27;20061;-59
2023/06/07 12:26:05;;;;;;;17.67;15.98;;;;;;;;;;5135325;27;20062;-59
2023/06/07 12:28:32;;;;;;;19.05;17.25;;;;;;;;;;5134624;27;20047;-57
2023/06/07 12:30:59;;;;;;;19.83;17.83;;;;;;;;;;5134953;27;20074;-59
2023/06/07 12:33:28;;;;;;;20.15;18.15;;;;;;;;;;5134901;27;20046;-59
2023/06/07 12:35:57;;;;;;;18.48;16.63;;;;;;;;;;5134928;27;20047;-59
2023/06/07 12:38:24;;;;;;;19.27;17.45;;;;;;;;;;5134304;27;20047;-59
2023/06/07 12:40:51;;;;;;;19.83;17.88;;;;;;;;;;5133676;27;20047;-59
2023/06/07 12:43:18;;;;;;;18.50;16.80;;;;;;;;;;5134805;27;20055;-59
2023/06/07 12:45:45;;;;;;;17.52;15.93;;;;;;;;;;5115107;27;20055;-59
2023/06/07 12:48:12;;;;;;;14.02;12.55;;;;;;;;;;5136516;27;20392;-59
2023/06/07 12:50:40;;;;;;;13.95;12.60;;;;;;;;;;5134296;27;20047;-59
2023/06/07 12:53:08;;;;;;;14.68;13.20;;;;;;;;;;5134401;27;20062;-59
2023/06/07 12:55:34;;;;;;;15.48;13.98;;;;;;;;;;5134390;27;20051;-59
2023/06/07 12:58:01;;;;;;;14.05;12.65;;;;;;;;;;5134460;27;20047;-59
2023/06/07 13:00:28;;;;;;;14.60;13.23;;;;;;;;;;5133198;27;20062;-59
2023/06/07 13:02:55;;;;;;;17.45;15.85;;;;;;;;;;5134371;27;20078;-59
2023/06/07 13:05:22;;;;;;;14.15;12.95;;;;;;;;;;5134275;27;20058;-59
2023/06/07 13:07:50;;;;;;;17.45;15.85;;;;;;;;;;5133946;27;20051;-59
2023/06/07 13:10:19;;;;;;;17.52;15.82;;;;;;;;;;5134366;27;20043;-59
2023/06/07 13:12:47;;;;;;;17.40;15.70;;;;;;;;;;5134167;27;20488;-59
2023/06/07 13:15:14;;;;;;;15.13;13.73;;;;;;;;;;5132984;27;20144;-59
2023/06/07 13:17:41;;;;;;;16.75;15.05;;;;;;;;;;5134254;27;20054;-60
2023/06/07 13:20:08;;;;;;;15.93;14.57;;;;;;;;;;5134172;27;20051;-59
2023/06/07 13:22:35;;;;;;;17.17;15.48;;;;;;;;;;5133950;27;20047;-60
2023/06/07 13:25:03;;;;;;;17.08;15.38;;;;;;;;;;5134071;27;20055;-60
2023/06/07 13:27:30;;;;;;;17.38;15.77;;;;;;;;;;5133901;27;20051;-59
2023/06/07 13:29:57;;;;;;;17.50;15.95;;;;;;;;;;5121365;27;20056;-60
2023/06/07 13:32:24;;;;;;;17.02;15.38;;;;;;;;;;5113246;28;20059;-60
2023/06/07 13:34:51;;;;;;;16.63;14.98;;;;;;;;;;5113210;28;20070;-60
2023/06/07 13:37:18;;;;;;;15.55;13.88;;;;;;;;;;5113308;28;20048;-60
2023/06/07 13:39:44;;;;;;;12.55;11.35;;;;;;;;;;5113198;28;20058;-60
2023/06/07 13:42:13;;;;;;;11.30;10.00;;;;;;;;;;5112902;28;20112;-60
2023/06/07 13:44:40;;;;;;;16.23;14.60;;;;;;;;;;5125878;27;20446;-60
2023/06/07 13:47:07;;;;;;;22.27;14.45;;;;;;;;;;5133563;27;20043;-60
2023/06/07 13:49:34;;;;;;;15.60;12.90;;;;;;;;;;5132926;27;20051;-60
2023/06/07 13:52:01;;;;;;;14.25;12.75;;;;;;;;;;5133752;27;20055;-60
2023/06/07 13:54:28;;;;;;;15.73;14.23;;;;;;;;;;5133131;27;20054;-60
2023/06/07 13:56:55;;;;;;;14.88;13.48;;;;;;;;;;5132980;27;20047;-59
2023/06/07 13:59:23;;;;;;;15.15;13.82;;;;;;;;;;5132194;27;20051;-59
2023/06/07 14:01:50;;;;;;;12.57;11.38;;;;;;;;;;5133234;27;20077;-60
2023/06/07 14:04:17;;;;;;;15.38;13.90;;;;;;;;;;5133610;27;20062;-59
2023/06/07 14:06:44;;;;;;;12.75;11.45;;;;;;;;;;5131880;27;20058;-59
2023/06/07 14:09:11;;;;;;;13.70;12.35;;;;;;;;;;5133301;27;20073;-60
2023/06/07 14:11:39;;;;;;;13.02;11.73;;;;;;;;;;5132836;27;20047;-60
2023/06/07 14:14:05;;;;;;;11.23;10.02;;;;;;;;;;5132861;27;20070;-59
2023/06/07 14:16:34;;;;;;;13.88;11.65;;;;;;;;;;5132974;28;20054;-59
2023/06/07 14:19:01;;;;;;;14.25;12.80;;;;;;;;;;5132748;28;20054;-59
2023/06/07 14:21:28;;;;;;;11.38;10.18;;;;;;;;;;5130392;27;20057;-60
2023/06/07 14:23:54;;;;;;;13.20;11.90;;;;;;;;;;5116687;27;20056;-60
2023/06/07 14:26:21;;;;;;;13.18;10.80;;;;;;;;;;5112362;28;20515;-60
2023/06/07 14:28:49;;;;;;;10.48;9.45;;;;;;;;;;5116714;27;20047;-60
2023/06/07 14:31:17;;;;;;;9.35;8.45;;;;;;;;;;5132903;28;20051;-60
2023/06/07 14:33:45;;;;;;;10.25;9.25;;;;;;;;;;5133128;28;20051;-60